sensor_id;sensor_type;location;lat;lon;timestamp;P1;durP1;ratioP1;P2;durP2;ratioP2
29430;SDS011;16404;49.902;10.074;2023-09-12T00:01:47;12.45;;;5.43;;
29430;SDS011;16404;49.902;10.074;2023-09-12T00:04:32;14.18;;;5.53;;
29430;SDS011;16404;49.902;10.074;2023-09-12T00:07:16;12.27;;;5.78;;
29430;SDS011;16404;49.902;10.074;2023-09-12T00:10:01;11.68;;;5.75;;
29430;SDS011;16404;49.902;10.074;2023-09-12T00:12:46;15.63;;;6.03;;
29430;SDS011;16404;49.902;10.074;2023-09-12T00:15:30;8.20;;;4.68;;
29430;SDS011;16404;49.902;10.074;2023-09-12T00:18:15;11.75;;;4.93;;
29430;SDS011;16404;49.902;10.074;2023-09-12T00:20:59;12.73;;;5.18;;
29430;SDS011;16404;49.902;10.074;2023-09-12T00:23:44;19.90;;;6.82;;
29430;SDS011;16404;49.902;10.074;2023-09-12T00:26:29;12.40;;;5.80;;
29430;SDS011;16404;49.902;10.074;2023-09-12T00:29:14;12.63;;;5.00;;
29430;SDS011;16404;49.902;10.074;2023-09-12T00:31:59;11.80;;;5.28;;
29430;SDS011;16404;49.902;10.074;2023-09-12T00:34:44;10.55;;;4.93;;
29430;SDS011;16404;49.902;10.074;2023-09-12T00:37:28;10.50;;;5.22;;
29430;SDS011;16404;49.902;10.074;2023-09-12T00:40:13;10.33;;;5.17;;
29430;SDS011;16404;49.902;10.074;2023-09-12T00:42:58;12.23;;;5.25;;
29430;SDS011;16404;49.902;10.074;2023-09-12T00:45:43;16.10;;;5.32;;
29430;SDS011;16404;49.902;10.074;2023-09-12T00:48:27;11.40;;;5.90;;
29430;SDS011;16404;49.902;10.074;2023-09-12T00:51:13;12.88;;;5.93;;
29430;SDS011;16404;49.902;10.074;2023-09-12T00:53:59;16.33;;;5.90;;
29430;SDS011;16404;49.902;10.074;2023-09-12T00:56:44;12.77;;;5.93;;
29430;SDS011;16404;49.902;10.074;2023-09-12T00:59:29;17.63;;;6.72;;
29430;SDS011;16404;49.902;10.074;2023-09-12T01:02:13;11.90;;;5.93;;
29430;SDS011;16404;49.902;10.074;2023-09-12T01:07:43;20.63;;;7.43;;
29430;SDS011;16404;49.902;10.074;2023-09-12T01:10:28;13.15;;;5.50;;
29430;SDS011;16404;49.902;10.074;2023-09-12T01:13:13;11.98;;;5.65;;
29430;SDS011;16404;49.902;10.074;2023-09-12T01:15:58;21.55;;;6.97;;
29430;SDS011;16404;49.902;10.074;2023-09-12T01:18:43;18.70;;;7.50;;
29430;SDS011;16404;49.902;10.074;2023-09-12T01:27:32;11.65;;;5.93;;
29430;SDS011;16404;49.902;10.074;2023-09-12T01:30:22;10.98;;;6.03;;
29430;SDS011;16404;49.902;10.074;2023-09-12T01:33:09;10.32;;;5.70;;
29430;SDS011;16404;49.902;10.074;2023-09-12T01:38:38;15.43;;;7.20;;
29430;SDS011;16404;49.902;10.074;2023-09-12T01:41:23;15.32;;;7.13;;
29430;SDS011;16404;49.902;10.074;2023-09-12T01:44:08;11.45;;;6.50;;
29430;SDS011;16404;49.902;10.074;2023-09-12T01:46:54;21.73;;;8.65;;
29430;SDS011;16404;49.902;10.074;2023-09-12T01:49:42;17.67;;;7.32;;
29430;SDS011;16404;49.902;10.074;2023-09-12T01:52:30;11.43;;;6.35;;
29430;SDS011;16404;49.902;10.074;2023-09-12T01:55:16;9.43;;;6.53;;
29430;SDS011;16404;49.902;10.074;2023-09-12T01:58:01;15.57;;;7.43;;
29430;SDS011;16404;49.902;10.074;2023-09-12T02:00:46;15.00;;;7.32;;
29430;SDS011;16404;49.902;10.074;2023-09-12T02:03:31;14.60;;;7.28;;
29430;SDS011;16404;49.902;10.074;2023-09-12T02:06:15;15.15;;;7.20;;
29430;SDS011;16404;49.902;10.074;2023-09-12T02:09:00;13.65;;;6.15;;
29430;SDS011;16404;49.902;10.074;2023-09-12T02:11:44;16.53;;;7.20;;
29430;SDS011;16404;49.902;10.074;2023-09-12T02:14:29;13.30;;;6.60;;
29430;SDS011;16404;49.902;10.074;2023-09-12T02:17:14;14.48;;;6.47;;
29430;SDS011;16404;49.902;10.074;2023-09-12T02:19:58;16.08;;;7.80;;
29430;SDS011;16404;49.902;10.074;2023-09-12T02:22:43;17.88;;;7.57;;
29430;SDS011;16404;49.902;10.074;2023-09-12T02:25:27;21.35;;;8.18;;
29430;SDS011;16404;49.902;10.074;2023-09-12T02:28:12;18.83;;;8.05;;
29430;SDS011;16404;49.902;10.074;2023-09-12T02:30:57;16.13;;;7.50;;
29430;SDS011;16404;49.902;10.074;2023-09-12T02:33:42;20.00;;;8.98;;
29430;SDS011;16404;49.902;10.074;2023-09-12T02:36:27;13.43;;;7.10;;
29430;SDS011;16404;49.902;10.074;2023-09-12T02:39:12;24.92;;;7.47;;
29430;SDS011;16404;49.902;10.074;2023-09-12T02:41:56;18.40;;;7.67;;
29430;SDS011;16404;49.902;10.074;2023-09-12T02:44:41;14.68;;;6.40;;
29430;SDS011;16404;49.902;10.074;2023-09-12T02:47:26;11.35;;;6.93;;
29430;SDS011;16404;49.902;10.074;2023-09-12T02:50:10;9.30;;;5.97;;
29430;SDS011;16404;49.902;10.074;2023-09-12T02:52:55;12.05;;;5.93;;
29430;SDS011;16404;49.902;10.074;2023-09-12T02:55:39;16.70;;;7.13;;
29430;SDS011;16404;49.902;10.074;2023-09-12T02:58:26;13.65;;;7.15;;
29430;SDS011;16404;49.902;10.074;2023-09-12T03:01:14;13.63;;;6.30;;
29430;SDS011;16404;49.902;10.074;2023-09-12T03:04:00;10.50;;;5.72;;
29430;SDS011;16404;49.902;10.074;2023-09-12T03:06:44;16.92;;;5.95;;
29430;SDS011;16404;49.902;10.074;2023-09-12T03:09:29;12.68;;;7.20;;
29430;SDS011;16404;49.902;10.074;2023-09-12T03:12:14;13.35;;;6.75;;
29430;SDS011;16404;49.902;10.074;2023-09-12T03:14:58;13.32;;;6.32;;
29430;SDS011;16404;49.902;10.074;2023-09-12T03:17:43;12.68;;;6.10;;
29430;SDS011;16404;49.902;10.074;2023-09-12T03:20:27;14.77;;;6.80;;
29430;SDS011;16404;49.902;10.074;2023-09-12T03:23:12;17.67;;;7.13;;
29430;SDS011;16404;49.902;10.074;2023-09-12T03:26:03;15.57;;;7.18;;
29430;SDS011;16404;49.902;10.074;2023-09-12T03:28:50;19.08;;;8.00;;
29430;SDS011;16404;49.902;10.074;2023-09-12T03:31:35;15.93;;;8.13;;
29430;SDS011;16404;49.902;10.074;2023-09-12T03:34:20;18.75;;;6.85;;
29430;SDS011;16404;49.902;10.074;2023-09-12T03:37:05;16.10;;;6.53;;
29430;SDS011;16404;49.902;10.074;2023-09-12T03:39:50;13.38;;;6.72;;
29430;SDS011;16404;49.902;10.074;2023-09-12T03:42:35;23.70;;;7.47;;
29430;SDS011;16404;49.902;10.074;2023-09-12T03:45:19;12.05;;;6.63;;
29430;SDS011;16404;49.902;10.074;2023-09-12T03:48:04;16.45;;;8.32;;
29430;SDS011;16404;49.902;10.074;2023-09-12T03:50:49;15.77;;;6.88;;
29430;SDS011;16404;49.902;10.074;2023-09-12T03:53:33;12.03;;;7.17;;
29430;SDS011;16404;49.902;10.074;2023-09-12T03:56:18;13.43;;;6.85;;
29430;SDS011;16404;49.902;10.074;2023-09-12T03:59:03;13.30;;;7.20;;
29430;SDS011;16404;49.902;10.074;2023-09-12T04:01:48;17.08;;;8.68;;
29430;SDS011;16404;49.902;10.074;2023-09-12T04:04:32;17.70;;;8.00;;
29430;SDS011;16404;49.902;10.074;2023-09-12T04:07:17;16.98;;;9.13;;
29430;SDS011;16404;49.902;10.074;2023-09-12T04:10:02;19.13;;;8.75;;
29430;SDS011;16404;49.902;10.074;2023-09-12T04:12:47;20.05;;;8.52;;
29430;SDS011;16404;49.902;10.074;2023-09-12T04:15:31;18.80;;;7.25;;
29430;SDS011;16404;49.902;10.074;2023-09-12T04:18:16;15.65;;;8.27;;
29430;SDS011;16404;49.902;10.074;2023-09-12T04:21:01;15.90;;;7.10;;
29430;SDS011;16404;49.902;10.074;2023-09-12T04:23:45;14.93;;;7.78;;
29430;SDS011;16404;49.902;10.074;2023-09-12T04:26:30;13.15;;;7.60;;
29430;SDS011;16404;49.902;10.074;2023-09-12T04:29:14;19.08;;;7.60;;
29430;SDS011;16404;49.902;10.074;2023-09-12T04:31:59;21.65;;;7.72;;
29430;SDS011;16404;49.902;10.074;2023-09-12T04:34:44;17.88;;;8.10;;
29430;SDS011;16404;49.902;10.074;2023-09-12T04:37:29;17.75;;;8.55;;
29430;SDS011;16404;49.902;10.074;2023-09-12T04:40:13;11.00;;;6.85;;
29430;SDS011;16404;49.902;10.074;2023-09-12T04:42:58;14.85;;;7.78;;
29430;SDS011;16404;49.902;10.074;2023-09-12T04:45:43;19.52;;;7.32;;
29430;SDS011;16404;49.902;10.074;2023-09-12T04:48:27;18.52;;;6.65;;
29430;SDS011;16404;49.902;10.074;2023-09-12T04:51:12;9.68;;;6.10;;
29430;SDS011;16404;49.902;10.074;2023-09-12T04:53:57;14.00;;;6.32;;
29430;SDS011;16404;49.902;10.074;2023-09-12T04:56:41;15.88;;;7.20;;
29430;SDS011;16404;49.902;10.074;2023-09-12T04:59:26;18.23;;;8.90;;
29430;SDS011;16404;49.902;10.074;2023-09-12T05:02:10;24.15;;;9.80;;
29430;SDS011;16404;49.902;10.074;2023-09-12T05:04:55;18.27;;;7.68;;
29430;SDS011;16404;49.902;10.074;2023-09-12T05:07:41;20.73;;;8.75;;
29430;SDS011;16404;49.902;10.074;2023-09-12T05:10:25;26.70;;;11.23;;
29430;SDS011;16404;49.902;10.074;2023-09-12T05:13:10;23.77;;;9.95;;
29430;SDS011;16404;49.902;10.074;2023-09-12T05:15:55;20.60;;;10.40;;
29430;SDS011;16404;49.902;10.074;2023-09-12T05:18:40;20.17;;;8.98;;
29430;SDS011;16404;49.902;10.074;2023-09-12T05:21:25;18.23;;;9.20;;
29430;SDS011;16404;49.902;10.074;2023-09-12T05:24:10;20.13;;;9.93;;
29430;SDS011;16404;49.902;10.074;2023-09-12T05:26:54;17.63;;;8.95;;
29430;SDS011;16404;49.902;10.074;2023-09-12T05:29:40;20.00;;;10.30;;
29430;SDS011;16404;49.902;10.074;2023-09-12T05:32:24;18.42;;;8.98;;
29430;SDS011;16404;49.902;10.074;2023-09-12T05:35:09;20.55;;;10.20;;
29430;SDS011;16404;49.902;10.074;2023-09-12T05:37:54;16.92;;;9.15;;
29430;SDS011;16404;49.902;10.074;2023-09-12T05:40:38;18.20;;;9.35;;
29430;SDS011;16404;49.902;10.074;2023-09-12T05:43:23;20.73;;;10.18;;
29430;SDS011;16404;49.902;10.074;2023-09-12T05:46:07;14.98;;;8.02;;
29430;SDS011;16404;49.902;10.074;2023-09-12T05:48:52;15.45;;;8.80;;
29430;SDS011;16404;49.902;10.074;2023-09-12T05:51:36;13.68;;;8.07;;
29430;SDS011;16404;49.902;10.074;2023-09-12T05:54:21;16.15;;;8.63;;
29430;SDS011;16404;49.902;10.074;2023-09-12T05:57:06;18.40;;;9.38;;
29430;SDS011;16404;49.902;10.074;2023-09-12T05:59:51;16.60;;;8.63;;
29430;SDS011;16404;49.902;10.074;2023-09-12T06:02:36;20.35;;;10.70;;
29430;SDS011;16404;49.902;10.074;2023-09-12T06:05:20;15.63;;;8.60;;
29430;SDS011;16404;49.902;10.074;2023-09-12T06:08:05;15.82;;;8.90;;
29430;SDS011;16404;49.902;10.074;2023-09-12T06:10:50;21.73;;;10.63;;
29430;SDS011;16404;49.902;10.074;2023-09-12T06:13:37;18.02;;;10.00;;
29430;SDS011;16404;49.902;10.074;2023-09-12T06:16:21;20.75;;;10.20;;
29430;SDS011;16404;49.902;10.074;2023-09-12T06:19:06;23.83;;;11.85;;
29430;SDS011;16404;49.902;10.074;2023-09-12T06:21:50;17.50;;;10.65;;
29430;SDS011;16404;49.902;10.074;2023-09-12T06:24:35;21.40;;;11.38;;
29430;SDS011;16404;49.902;10.074;2023-09-12T06:27:20;25.10;;;10.30;;
29430;SDS011;16404;49.902;10.074;2023-09-12T06:30:04;20.37;;;11.00;;
29430;SDS011;16404;49.902;10.074;2023-09-12T06:35:33;17.52;;;11.18;;
29430;SDS011;16404;49.902;10.074;2023-09-12T06:38:18;21.00;;;11.00;;
29430;SDS011;16404;49.902;10.074;2023-09-12T06:41:03;16.73;;;10.32;;
29430;SDS011;16404;49.902;10.074;2023-09-12T06:43:48;17.25;;;10.93;;
29430;SDS011;16404;49.902;10.074;2023-09-12T06:46:33;20.13;;;11.23;;
29430;SDS011;16404;49.902;10.074;2023-09-12T06:49:21;17.85;;;10.38;;
29430;SDS011;16404;49.902;10.074;2023-09-12T06:52:05;19.17;;;10.23;;
29430;SDS011;16404;49.902;10.074;2023-09-12T06:54:50;16.83;;;9.15;;
29430;SDS011;16404;49.902;10.074;2023-09-12T06:57:34;23.67;;;10.88;;
29430;SDS011;16404;49.902;10.074;2023-09-12T07:00:19;21.42;;;10.15;;
29430;SDS011;16404;49.902;10.074;2023-09-12T07:03:04;23.90;;;9.85;;
29430;SDS011;16404;49.902;10.074;2023-09-12T07:05:48;18.88;;;10.10;;
29430;SDS011;16404;49.902;10.074;2023-09-12T07:08:33;19.25;;;9.35;;
29430;SDS011;16404;49.902;10.074;2023-09-12T07:11:17;26.48;;;9.80;;
29430;SDS011;16404;49.902;10.074;2023-09-12T07:14:03;18.33;;;10.10;;
29430;SDS011;16404;49.902;10.074;2023-09-12T07:16:47;20.20;;;9.27;;
29430;SDS011;16404;49.902;10.074;2023-09-12T07:19:32;20.67;;;9.63;;
29430;SDS011;16404;49.902;10.074;2023-09-12T07:22:16;19.70;;;8.85;;
29430;SDS011;16404;49.902;10.074;2023-09-12T07:25:01;21.60;;;9.20;;
29430;SDS011;16404;49.902;10.074;2023-09-12T07:27:45;16.60;;;9.45;;
29430;SDS011;16404;49.902;10.074;2023-09-12T07:30:30;22.08;;;9.68;;
29430;SDS011;16404;49.902;10.074;2023-09-12T07:33:15;22.08;;;9.48;;
29430;SDS011;16404;49.902;10.074;2023-09-12T07:35:59;22.10;;;8.90;;
29430;SDS011;16404;49.902;10.074;2023-09-12T07:38:46;17.02;;;8.45;;
29430;SDS011;16404;49.902;10.074;2023-09-12T07:44:15;16.27;;;8.63;;
29430;SDS011;16404;49.902;10.074;2023-09-12T07:49:44;18.45;;;7.60;;
29430;SDS011;16404;49.902;10.074;2023-09-12T07:52:29;16.70;;;7.78;;
29430;SDS011;16404;49.902;10.074;2023-09-12T07:55:14;23.50;;;8.57;;
29430;SDS011;16404;49.902;10.074;2023-09-12T07:57:58;14.70;;;8.07;;
29430;SDS011;16404;49.902;10.074;2023-09-12T08:00:43;16.95;;;7.32;;
29430;SDS011;16404;49.902;10.074;2023-09-12T08:03:27;18.25;;;6.72;;
29430;SDS011;16404;49.902;10.074;2023-09-12T08:06:12;18.70;;;6.78;;
29430;SDS011;16404;49.902;10.074;2023-09-12T08:11:41;17.98;;;6.90;;
29430;SDS011;16404;49.902;10.074;2023-09-12T08:14:26;16.60;;;7.05;;
29430;SDS011;16404;49.902;10.074;2023-09-12T08:17:11;17.10;;;7.00;;
29430;SDS011;16404;49.902;10.074;2023-09-12T08:22:40;19.98;;;7.32;;
29430;SDS011;16404;49.902;10.074;2023-09-12T08:25:25;19.67;;;6.57;;
29430;SDS011;16404;49.902;10.074;2023-09-12T08:28:10;13.07;;;7.20;;
29430;SDS011;16404;49.902;10.074;2023-09-12T08:30:55;15.88;;;7.40;;
29430;SDS011;16404;49.902;10.074;2023-09-12T08:33:39;11.25;;;6.55;;
29430;SDS011;16404;49.902;10.074;2023-09-12T08:36:24;18.80;;;7.13;;
29430;SDS011;16404;49.902;10.074;2023-09-12T08:39:12;15.80;;;7.07;;
29430;SDS011;16404;49.902;10.074;2023-09-12T08:42:01;14.38;;;6.95;;
29430;SDS011;16404;49.902;10.074;2023-09-12T08:44:46;15.30;;;7.55;;
29430;SDS011;16404;49.902;10.074;2023-09-12T08:47:30;16.77;;;6.97;;
29430;SDS011;16404;49.902;10.074;2023-09-12T08:53:00;11.20;;;5.97;;
29430;SDS011;16404;49.902;10.074;2023-09-12T08:55:44;11.18;;;6.65;;
29430;SDS011;16404;49.902;10.074;2023-09-12T08:58:29;22.27;;;7.47;;
29430;SDS011;16404;49.902;10.074;2023-09-12T09:01:16;17.60;;;6.40;;
29430;SDS011;16404;49.902;10.074;2023-09-12T09:04:03;11.25;;;6.28;;
29430;SDS011;16404;49.902;10.074;2023-09-12T09:09:33;14.52;;;6.70;;
29430;SDS011;16404;49.902;10.074;2023-09-12T09:12:18;12.23;;;6.80;;
29430;SDS011;16404;49.902;10.074;2023-09-12T09:18:06;18.55;;;7.45;;
29430;SDS011;16404;49.902;10.074;2023-09-12T09:20:50;19.27;;;7.53;;
29430;SDS011;16404;49.902;10.074;2023-09-12T09:23:37;12.98;;;6.68;;
29430;SDS011;16404;49.902;10.074;2023-09-12T09:27:02;12.15;;;7.03;;
29430;SDS011;16404;49.902;10.074;2023-09-12T09:29:46;19.55;;;7.93;;
29430;SDS011;16404;49.902;10.074;2023-09-12T09:32:34;13.93;;;6.82;;
29430;SDS011;16404;49.902;10.074;2023-09-12T09:35:19;14.85;;;7.25;;
29430;SDS011;16404;49.902;10.074;2023-09-12T09:38:04;14.63;;;6.85;;
29430;SDS011;16404;49.902;10.074;2023-09-12T09:40:50;12.75;;;7.45;;
29430;SDS011;16404;49.902;10.074;2023-09-12T09:43:34;15.98;;;6.88;;
29430;SDS011;16404;49.902;10.074;2023-09-12T09:46:19;14.00;;;7.78;;
29430;SDS011;16404;49.902;10.074;2023-09-12T09:49:04;17.83;;;8.25;;
29430;SDS011;16404;49.902;10.074;2023-09-12T09:51:50;12.23;;;7.25;;
29430;SDS011;16404;49.902;10.074;2023-09-12T09:54:42;15.77;;;7.05;;
29430;SDS011;16404;49.902;10.074;2023-09-12T09:57:28;14.10;;;7.40;;
29430;SDS011;16404;49.902;10.074;2023-09-12T10:00:12;10.73;;;7.00;;
29430;SDS011;16404;49.902;10.074;2023-09-12T10:02:59;14.75;;;7.07;;
29430;SDS011;16404;49.902;10.074;2023-09-12T10:05:43;16.10;;;7.30;;
29430;SDS011;16404;49.902;10.074;2023-09-12T10:08:29;16.25;;;7.22;;
29430;SDS011;16404;49.902;10.074;2023-09-12T10:11:14;15.50;;;6.50;;
29430;SDS011;16404;49.902;10.074;2023-09-12T10:14:00;13.20;;;6.90;;
29430;SDS011;16404;49.902;10.074;2023-09-12T10:16:49;15.85;;;7.30;;
29430;SDS011;16404;49.902;10.074;2023-09-12T10:19:44;11.65;;;6.90;;
29430;SDS011;16404;49.902;10.074;2023-09-12T10:22:43;14.38;;;7.60;;
29430;SDS011;16404;49.902;10.074;2023-09-12T10:25:43;16.85;;;6.82;;
29430;SDS011;16404;49.902;10.074;2023-09-12T10:28:29;12.95;;;7.45;;
29430;SDS011;16404;49.902;10.074;2023-09-12T10:31:14;13.43;;;6.80;;
29430;SDS011;16404;49.902;10.074;2023-09-12T10:34:00;13.45;;;6.97;;
29430;SDS011;16404;49.902;10.074;2023-09-12T10:36:46;17.92;;;6.80;;
29430;SDS011;16404;49.902;10.074;2023-09-12T10:39:32;8.77;;;6.50;;
29430;SDS011;16404;49.902;10.074;2023-09-12T10:42:18;15.20;;;7.00;;
29430;SDS011;16404;49.902;10.074;2023-09-12T10:45:05;17.48;;;7.32;;
29430;SDS011;16404;49.902;10.074;2023-09-12T10:47:51;18.58;;;7.18;;
29430;SDS011;16404;49.902;10.074;2023-09-12T10:50:36;11.07;;;5.97;;
29430;SDS011;16404;49.902;10.074;2023-09-12T10:53:22;16.05;;;6.97;;
29430;SDS011;16404;49.902;10.074;2023-09-12T11:01:50;11.40;;;6.45;;
29430;SDS011;16404;49.902;10.074;2023-09-12T11:04:34;10.05;;;7.28;;
29430;SDS011;16404;49.902;10.074;2023-09-12T11:10:24;14.10;;;7.03;;
29430;SDS011;16404;49.902;10.074;2023-09-12T11:13:16;13.10;;;7.30;;
29430;SDS011;16404;49.902;10.074;2023-09-12T11:16:14;15.00;;;7.18;;
29430;SDS011;16404;49.902;10.074;2023-09-12T11:19:17;14.20;;;7.40;;
29430;SDS011;16404;49.902;10.074;2023-09-12T11:22:03;9.45;;;7.32;;
29430;SDS011;16404;49.902;10.074;2023-09-12T11:28:03;22.15;;;7.53;;
29430;SDS011;16404;49.902;10.074;2023-09-12T11:30:55;15.75;;;7.55;;
29430;SDS011;16404;49.902;10.074;2023-09-12T11:33:43;10.43;;;6.50;;
29430;SDS011;16404;49.902;10.074;2023-09-12T11:36:28;14.98;;;6.78;;
29430;SDS011;16404;49.902;10.074;2023-09-12T11:39:25;14.48;;;6.47;;
29430;SDS011;16404;49.902;10.074;2023-09-12T11:42:13;15.57;;;6.55;;
29430;SDS011;16404;49.902;10.074;2023-09-12T11:44:57;10.88;;;5.53;;
29430;SDS011;16404;49.902;10.074;2023-09-12T11:47:43;12.50;;;6.18;;
29430;SDS011;16404;49.902;10.074;2023-09-12T11:50:29;11.02;;;6.25;;
29430;SDS011;16404;49.902;10.074;2023-09-12T11:53:18;11.60;;;5.35;;
29430;SDS011;16404;49.902;10.074;2023-09-12T11:56:09;12.70;;;5.57;;
29430;SDS011;16404;49.902;10.074;2023-09-12T11:58:54;12.48;;;5.70;;
29430;SDS011;16404;49.902;10.074;2023-09-12T12:01:39;12.90;;;6.15;;
29430;SDS011;16404;49.902;10.074;2023-09-12T12:04:24;13.25;;;5.93;;
29430;SDS011;16404;49.902;10.074;2023-09-12T12:07:09;13.68;;;6.05;;
29430;SDS011;16404;49.902;10.074;2023-09-12T12:09:55;13.88;;;6.40;;
29430;SDS011;16404;49.902;10.074;2023-09-12T12:12:39;16.83;;;6.38;;
29430;SDS011;16404;49.902;10.074;2023-09-12T12:15:29;14.77;;;6.43;;
29430;SDS011;16404;49.902;10.074;2023-09-12T12:18:14;17.85;;;6.00;;
29430;SDS011;16404;49.902;10.074;2023-09-12T12:20:59;10.02;;;5.60;;
29430;SDS011;16404;49.902;10.074;2023-09-12T12:23:43;12.75;;;5.90;;
29430;SDS011;16404;49.902;10.074;2023-09-12T12:26:29;13.50;;;5.88;;
29430;SDS011;16404;49.902;10.074;2023-09-12T12:29:14;13.40;;;5.97;;
29430;SDS011;16404;49.902;10.074;2023-09-12T12:32:02;16.50;;;6.10;;
29430;SDS011;16404;49.902;10.074;2023-09-12T12:34:49;13.75;;;5.75;;
29430;SDS011;16404;49.902;10.074;2023-09-12T12:37:33;11.20;;;5.45;;
29430;SDS011;16404;49.902;10.074;2023-09-12T12:40:19;15.98;;;6.18;;
29430;SDS011;16404;49.902;10.074;2023-09-12T12:45:56;14.63;;;6.32;;
29430;SDS011;16404;49.902;10.074;2023-09-12T12:48:42;12.02;;;6.00;;
29430;SDS011;16404;49.902;10.074;2023-09-12T12:51:30;14.00;;;5.57;;
29430;SDS011;16404;49.902;10.074;2023-09-12T12:56:59;12.43;;;6.00;;
29430;SDS011;16404;49.902;10.074;2023-09-12T12:59:46;13.15;;;5.97;;
29430;SDS011;16404;49.902;10.074;2023-09-12T13:02:34;16.98;;;6.07;;
29430;SDS011;16404;49.902;10.074;2023-09-12T13:05:21;13.32;;;5.60;;
29430;SDS011;16404;49.902;10.074;2023-09-12T13:08:09;16.77;;;6.07;;
29430;SDS011;16404;49.902;10.074;2023-09-12T13:10:54;10.52;;;5.85;;
29430;SDS011;16404;49.902;10.074;2023-09-12T13:13:39;15.90;;;5.78;;
29430;SDS011;16404;49.902;10.074;2023-09-12T13:16:25;13.23;;;5.90;;
29430;SDS011;16404;49.902;10.074;2023-09-12T13:19:09;14.27;;;5.90;;
29430;SDS011;16404;49.902;10.074;2023-09-12T13:21:56;13.15;;;5.97;;
29430;SDS011;16404;49.902;10.074;2023-09-12T13:24:41;11.15;;;5.38;;
29430;SDS011;16404;49.902;10.074;2023-09-12T13:27:25;14.25;;;5.50;;
29430;SDS011;16404;49.902;10.074;2023-09-12T13:30:10;11.98;;;5.70;;
29430;SDS011;16404;49.902;10.074;2023-09-12T13:32:55;11.07;;;5.63;;
29430;SDS011;16404;49.902;10.074;2023-09-12T13:35:39;8.82;;;5.13;;
29430;SDS011;16404;49.902;10.074;2023-09-12T13:38:24;11.70;;;5.63;;
29430;SDS011;16404;49.902;10.074;2023-09-12T13:41:08;10.40;;;5.90;;
29430;SDS011;16404;49.902;10.074;2023-09-12T13:43:53;10.80;;;6.00;;
29430;SDS011;16404;49.902;10.074;2023-09-12T13:46:37;11.65;;;5.75;;
29430;SDS011;16404;49.902;10.074;2023-09-12T13:49:22;12.05;;;5.82;;
29430;SDS011;16404;49.902;10.074;2023-09-12T13:52:07;14.43;;;5.47;;
29430;SDS011;16404;49.902;10.074;2023-09-12T13:54:51;19.35;;;5.85;;
29430;SDS011;16404;49.902;10.074;2023-09-12T13:57:36;13.40;;;5.88;;
29430;SDS011;16404;49.902;10.074;2023-09-12T14:00:20;15.43;;;5.32;;
29430;SDS011;16404;49.902;10.074;2023-09-12T14:05:49;12.10;;;5.60;;
29430;SDS011;16404;49.902;10.074;2023-09-12T14:08:34;14.57;;;6.13;;
29430;SDS011;16404;49.902;10.074;2023-09-12T14:11:18;12.10;;;5.70;;
29430;SDS011;16404;49.902;10.074;2023-09-12T14:14:03;10.85;;;6.15;;
29430;SDS011;16404;49.902;10.074;2023-09-12T14:16:48;18.58;;;5.95;;
29430;SDS011;16404;49.902;10.074;2023-09-12T14:19:32;11.90;;;5.80;;
29430;SDS011;16404;49.902;10.074;2023-09-12T14:22:18;11.75;;;6.18;;
29430;SDS011;16404;49.902;10.074;2023-09-12T14:25:02;15.10;;;5.55;;
29430;SDS011;16404;49.902;10.074;2023-09-12T14:30:31;15.43;;;5.28;;
29430;SDS011;16404;49.902;10.074;2023-09-12T14:33:19;14.07;;;6.00;;
29430;SDS011;16404;49.902;10.074;2023-09-12T14:36:05;9.93;;;6.10;;
29430;SDS011;16404;49.902;10.074;2023-09-12T14:38:51;11.50;;;5.75;;
29430;SDS011;16404;49.902;10.074;2023-09-12T14:41:35;14.25;;;6.10;;
29430;SDS011;16404;49.902;10.074;2023-09-12T14:44:26;14.10;;;5.53;;
29430;SDS011;16404;49.902;10.074;2023-09-12T14:47:11;13.43;;;5.78;;
29430;SDS011;16404;49.902;10.074;2023-09-12T14:49:56;12.02;;;5.57;;
29430;SDS011;16404;49.902;10.074;2023-09-12T14:52:41;9.88;;;5.75;;
29430;SDS011;16404;49.902;10.074;2023-09-12T14:55:26;14.02;;;5.95;;
29430;SDS011;16404;49.902;10.074;2023-09-12T15:00:54;8.68;;;5.50;;
29430;SDS011;16404;49.902;10.074;2023-09-12T15:03:39;13.57;;;5.60;;
29430;SDS011;16404;49.902;10.074;2023-09-12T15:06:24;12.70;;;5.50;;
29430;SDS011;16404;49.902;10.074;2023-09-12T15:11:53;11.88;;;5.90;;
29430;SDS011;16404;49.902;10.074;2023-09-12T15:17:22;14.60;;;5.88;;
29430;SDS011;16404;49.902;10.074;2023-09-12T15:22:51;13.97;;;6.10;;
29430;SDS011;16404;49.902;10.074;2023-09-12T15:28:20;11.25;;;5.50;;
29430;SDS011;16404;49.902;10.074;2023-09-12T15:31:05;18.20;;;5.75;;
29430;SDS011;16404;49.902;10.074;2023-09-12T15:33:49;11.25;;;5.25;;
29430;SDS011;16404;49.902;10.074;2023-09-12T15:36:41;12.35;;;5.43;;
29430;SDS011;16404;49.902;10.074;2023-09-12T15:39:27;12.75;;;5.20;;
29430;SDS011;16404;49.902;10.074;2023-09-12T15:42:12;9.88;;;5.72;;
29430;SDS011;16404;49.902;10.074;2023-09-12T15:44:57;27.75;;;6.07;;
29430;SDS011;16404;49.902;10.074;2023-09-12T15:50:26;38.78;;;6.55;;
29430;SDS011;16404;49.902;10.074;2023-09-12T15:53:10;11.32;;;5.40;;
29430;SDS011;16404;49.902;10.074;2023-09-12T15:55:55;11.13;;;5.72;;
29430;SDS011;16404;49.902;10.074;2023-09-12T15:58:39;15.57;;;5.80;;
29430;SDS011;16404;49.902;10.074;2023-09-12T16:01:24;14.38;;;5.43;;
29430;SDS011;16404;49.902;10.074;2023-09-12T16:04:08;18.80;;;5.80;;
29430;SDS011;16404;49.902;10.074;2023-09-12T16:06:53;52.67;;;6.07;;
29430;SDS011;16404;49.902;10.074;2023-09-12T16:09:37;26.67;;;6.10;;
29430;SDS011;16404;49.902;10.074;2023-09-12T16:12:22;29.50;;;6.30;;
29430;SDS011;16404;49.902;10.074;2023-09-12T16:15:07;16.55;;;5.32;;
29430;SDS011;16404;49.902;10.074;2023-09-12T16:17:52;16.25;;;5.88;;
29430;SDS011;16404;49.902;10.074;2023-09-12T16:20:36;15.95;;;6.00;;
29430;SDS011;16404;49.902;10.074;2023-09-12T16:23:21;14.30;;;5.28;;
29430;SDS011;16404;49.902;10.074;2023-09-12T16:26:08;23.40;;;6.43;;
29430;SDS011;16404;49.902;10.074;2023-09-12T16:28:52;20.65;;;5.75;;
29430;SDS011;16404;49.902;10.074;2023-09-12T16:31:37;9.65;;;5.18;;
29430;SDS011;16404;49.902;10.074;2023-09-12T16:34:22;9.30;;;4.85;;
29430;SDS011;16404;49.902;10.074;2023-09-12T16:37:07;15.07;;;5.80;;
29430;SDS011;16404;49.902;10.074;2023-09-12T16:39:51;18.30;;;6.05;;
29430;SDS011;16404;49.902;10.074;2023-09-12T16:42:36;12.23;;;4.97;;
29430;SDS011;16404;49.902;10.074;2023-09-12T16:45:20;20.48;;;5.63;;
29430;SDS011;16404;49.902;10.074;2023-09-12T16:50:50;15.57;;;5.78;;
29430;SDS011;16404;49.902;10.074;2023-09-12T16:53:34;16.35;;;6.13;;
29430;SDS011;16404;49.902;10.074;2023-09-12T16:56:19;14.95;;;5.70;;
29430;SDS011;16404;49.902;10.074;2023-09-12T16:59:04;17.25;;;5.93;;
29430;SDS011;16404;49.902;10.074;2023-09-12T17:01:48;12.15;;;5.95;;
29430;SDS011;16404;49.902;10.074;2023-09-12T17:04:33;10.95;;;5.03;;
29430;SDS011;16404;49.902;10.074;2023-09-12T17:07:18;11.23;;;5.18;;
29430;SDS011;16404;49.902;10.074;2023-09-12T17:10:03;16.75;;;5.95;;
29430;SDS011;16404;49.902;10.074;2023-09-12T17:12:48;8.90;;;5.18;;
29430;SDS011;16404;49.902;10.074;2023-09-12T17:15:32;17.83;;;5.13;;
29430;SDS011;16404;49.902;10.074;2023-09-12T17:18:21;12.13;;;5.45;;
29430;SDS011;16404;49.902;10.074;2023-09-12T17:21:05;12.40;;;5.82;;
29430;SDS011;16404;49.902;10.074;2023-09-12T17:23:50;20.70;;;5.90;;